Park Hills, Kentucky
Current Conditions -  °F | °C
As of 6:55 AM on Tuesday 21 Oct 2014 (Local Time) from KI69 Reporting Station
Overcast Overcast  
Wind Chill: 52°   Ceiling: 6000
Heat Index: 52°   Visibility: 10mi
Dew Point: 46°   Wind: 8mph
Humidity: 82%   Direction: 330°NNW
Pressure: 29.96"   Gusts: NA
Location:  39.0659°N, 84.5309°W
Report Text: KI69 211055Z AUTO 33007KT 10SM SCT034 SCT042 OVC060 11/08 A2996 RMK AO1
Loading
Personal Weather Stations






























Interactive Weather Map
Tropical Storm Tracking
New forecast layout! Learn more

10-Day Weather Forecast

Advertisements
Track Severe Weather on mobile